sensor_id;sensor_type;location;lat;lon;timestamp;pressure;altitude;pressure_sealevel;temperature;humidity
56456;BME280;42354;53.218;6.564;2023-07-22T00:00:13;46981.13;;;-142.92;100.00
56456;BME280;42354;53.218;6.564;2023-07-22T00:02:39;46974.97;;;-142.92;100.00
56456;BME280;42354;53.218;6.564;2023-07-22T00:05:05;46972.91;;;-142.92;100.00
56456;BME280;42354;53.218;6.564;2023-07-22T00:07:30;46962.66;;;-142.92;100.00
56456;BME280;42354;53.218;6.564;2023-07-22T00:09:55;46983.19;;;-142.92;100.00
56456;BME280;42354;53.218;6.564;2023-07-22T00:12:21;46960.59;;;-142.92;100.00
56456;BME280;42354;53.218;6.564;2023-07-22T00:14:51;46968.81;;;-142.92;100.00
56456;BME280;42354;53.218;6.564;2023-07-22T00:17:16;46979.06;;;-142.92;100.00
56456;BME280;42354;53.218;6.564;2023-07-22T00:19:42;46979.06;;;-142.92;100.00
56456;BME280;42354;53.218;6.564;2023-07-22T00:22:07;46974.97;;;-142.92;100.00
56456;BME280;42354;53.218;6.564;2023-07-22T00:24:32;46974.97;;;-142.92;100.00
56456;BME280;42354;53.218;6.564;2023-07-22T00:26:58;46966.75;;;-142.92;100.00
56456;BME280;42354;53.218;6.564;2023-07-22T00:29:24;46956.50;;;-142.92;100.00
56456;BME280;42354;53.218;6.564;2023-07-22T00:31:49;46979.06;;;-142.92;100.00
56456;BME280;42354;53.218;6.564;2023-07-22T00:34:15;46970.88;;;-142.92;100.00
56456;BME280;42354;53.218;6.564;2023-07-22T00:36:40;46966.75;;;-142.92;100.00
56456;BME280;42354;53.218;6.564;2023-07-22T00:39:05;46958.56;;;-142.92;100.00
56456;BME280;42354;53.218;6.564;2023-07-22T00:41:31;47005.75;;;-142.92;100.00
56456;BME280;42354;53.218;6.564;2023-07-22T00:43:57;46962.66;;;-142.92;100.00
56456;BME280;42354;53.218;6.564;2023-07-22T00:46:22;46987.28;;;-142.92;100.00
56456;BME280;42354;53.218;6.564;2023-07-22T00:48:48;46979.06;;;-142.92;100.00
56456;BME280;42354;53.218;6.564;2023-07-22T00:51:15;46977.03;;;-142.92;100.00
56456;BME280;42354;53.218;6.564;2023-07-22T00:53:40;46974.97;;;-142.92;100.00
56456;BME280;42354;53.218;6.564;2023-07-22T00:56:06;46962.66;;;-142.92;100.00
56456;BME280;42354;53.218;6.564;2023-07-22T00:58:32;46954.44;;;-142.92;100.00
56456;BME280;42354;53.218;6.564;2023-07-22T01:00:58;46956.50;;;-142.92;100.00
56456;BME280;42354;53.218;6.564;2023-07-22T01:03:24;46958.56;;;-142.92;100.00
56456;BME280;42354;53.218;6.564;2023-07-22T01:05:51;46979.06;;;-142.92;100.00
56456;BME280;42354;53.218;6.564;2023-07-22T01:08:17;46966.75;;;-142.92;100.00
56456;BME280;42354;53.218;6.564;2023-07-22T01:10:43;46999.59;;;-142.92;100.00
56456;BME280;42354;53.218;6.564;2023-07-22T01:13:09;46966.75;;;-142.92;100.00
56456;BME280;42354;53.218;6.564;2023-07-22T01:15:34;46979.06;;;-142.92;100.00
56456;BME280;42354;53.218;6.564;2023-07-22T01:18:03;46962.66;;;-142.92;100.00
56456;BME280;42354;53.218;6.564;2023-07-22T01:20:29;46985.22;;;-142.92;100.00
56456;BME280;42354;53.218;6.564;2023-07-22T01:22:55;46962.66;;;-142.92;100.00
56456;BME280;42354;53.218;6.564;2023-07-22T01:25:21;46995.50;;;-142.92;100.00
56456;BME280;42354;53.218;6.564;2023-07-22T01:27:50;46985.22;;;-142.92;100.00
56456;BME280;42354;53.218;6.564;2023-07-22T01:30:16;46968.81;;;-142.92;100.00
56456;BME280;42354;53.218;6.564;2023-07-22T01:32:41;46966.75;;;-142.92;100.00
56456;BME280;42354;53.218;6.564;2023-07-22T01:35:07;46977.03;;;-142.92;100.00
56456;BME280;42354;53.218;6.564;2023-07-22T01:37:34;46970.88;;;-142.92;100.00
56456;BME280;42354;53.218;6.564;2023-07-22T01:39:59;46968.81;;;-142.92;100.00
56456;BME280;42354;53.218;6.564;2023-07-22T01:42:25;46979.06;;;-142.92;100.00
56456;BME280;42354;53.218;6.564;2023-07-22T01:44:50;46977.03;;;-142.92;100.00
56456;BME280;42354;53.218;6.564;2023-07-22T01:47:15;46985.22;;;-142.92;100.00
56456;BME280;42354;53.218;6.564;2023-07-22T01:49:41;46966.75;;;-142.92;100.00
56456;BME280;42354;53.218;6.564;2023-07-22T01:52:07;46972.91;;;-142.92;100.00
56456;BME280;42354;53.218;6.564;2023-07-22T01:54:32;46974.97;;;-142.92;100.00
56456;BME280;42354;53.218;6.564;2023-07-22T01:56:58;46966.75;;;-142.92;100.00
56456;BME280;42354;53.218;6.564;2023-07-22T01:59:23;46974.97;;;-142.92;100.00
56456;BME280;42354;53.218;6.564;2023-07-22T02:01:49;46964.72;;;-142.92;100.00
56456;BME280;42354;53.218;6.564;2023-07-22T02:04:14;46979.06;;;-142.92;100.00
56456;BME280;42354;53.218;6.564;2023-07-22T02:06:40;46981.13;;;-142.92;100.00
56456;BME280;42354;53.218;6.564;2023-07-22T02:09:05;46979.06;;;-142.92;100.00
56456;BME280;42354;53.218;6.564;2023-07-22T02:11:36;46981.13;;;-142.92;100.00
56456;BME280;42354;53.218;6.564;2023-07-22T02:14:01;46970.88;;;-142.92;100.00
56456;BME280;42354;53.218;6.564;2023-07-22T02:16:27;46979.06;;;-142.92;100.00
56456;BME280;42354;53.218;6.564;2023-07-22T02:18:52;46983.19;;;-142.92;100.00
56456;BME280;42354;53.218;6.564;2023-07-22T02:21:17;46968.81;;;-142.92;100.00
56456;BME280;42354;53.218;6.564;2023-07-22T02:23:43;46979.06;;;-142.92;100.00
56456;BME280;42354;53.218;6.564;2023-07-22T02:26:08;46977.03;;;-142.92;100.00
56456;BME280;42354;53.218;6.564;2023-07-22T02:28:33;46977.03;;;-142.92;100.00
56456;BME280;42354;53.218;6.564;2023-07-22T02:31:02;46956.50;;;-142.92;100.00
56456;BME280;42354;53.218;6.564;2023-07-22T02:33:29;46968.81;;;-142.92;100.00
56456;BME280;42354;53.218;6.564;2023-07-22T02:35:55;46991.38;;;-142.92;100.00
56456;BME280;42354;53.218;6.564;2023-07-22T02:38:20;46995.50;;;-142.92;100.00
56456;BME280;42354;53.218;6.564;2023-07-22T02:40:45;46958.56;;;-142.92;100.00
56456;BME280;42354;53.218;6.564;2023-07-22T02:43:11;46968.81;;;-142.92;100.00
56456;BME280;42354;53.218;6.564;2023-07-22T02:45:37;46985.22;;;-142.92;100.00
56456;BME280;42354;53.218;6.564;2023-07-22T02:48:02;46966.75;;;-142.92;100.00
56456;BME280;42354;53.218;6.564;2023-07-22T02:50:28;46970.88;;;-142.92;100.00
56456;BME280;42354;53.218;6.564;2023-07-22T02:52:54;46981.13;;;-142.92;100.00
56456;BME280;42354;53.218;6.564;2023-07-22T02:55:19;46972.91;;;-142.92;100.00
56456;BME280;42354;53.218;6.564;2023-07-22T02:57:45;46983.19;;;-142.92;100.00
56456;BME280;42354;53.218;6.564;2023-07-22T03:00:12;46970.88;;;-142.92;100.00
56456;BME280;42354;53.218;6.564;2023-07-22T03:02:38;46981.13;;;-142.92;100.00
56456;BME280;42354;53.218;6.564;2023-07-22T03:05:05;46983.19;;;-142.92;100.00
56456;BME280;42354;53.218;6.564;2023-07-22T03:07:40;46960.59;;;-142.92;100.00
56456;BME280;42354;53.218;6.564;2023-07-22T03:10:06;46974.97;;;-142.92;100.00
56456;BME280;42354;53.218;6.564;2023-07-22T03:12:32;46966.75;;;-142.92;100.00
56456;BME280;42354;53.218;6.564;2023-07-22T03:14:58;46952.41;;;-142.92;100.00
56456;BME280;42354;53.218;6.564;2023-07-22T03:17:24;46979.06;;;-142.92;100.00
56456;BME280;42354;53.218;6.564;2023-07-22T03:19:49;46956.50;;;-142.92;100.00
56456;BME280;42354;53.218;6.564;2023-07-22T03:22:16;46979.06;;;-142.92;100.00
56456;BME280;42354;53.218;6.564;2023-07-22T03:24:45;46995.50;;;-142.92;100.00
56456;BME280;42354;53.218;6.564;2023-07-22T03:27:11;46983.19;;;-142.92;100.00
56456;BME280;42354;53.218;6.564;2023-07-22T03:29:40;46991.38;;;-142.92;100.00
56456;BME280;42354;53.218;6.564;2023-07-22T03:32:06;46974.97;;;-142.92;100.00
56456;BME280;42354;53.218;6.564;2023-07-22T03:34:31;46977.03;;;-142.92;100.00
56456;BME280;42354;53.218;6.564;2023-07-22T03:36:57;46958.56;;;-142.92;100.00
56456;BME280;42354;53.218;6.564;2023-07-22T03:39:23;46966.75;;;-142.92;100.00
56456;BME280;42354;53.218;6.564;2023-07-22T03:41:48;46968.81;;;-142.92;100.00
56456;BME280;42354;53.218;6.564;2023-07-22T03:44:14;46970.88;;;-142.92;100.00
56456;BME280;42354;53.218;6.564;2023-07-22T03:46:39;46983.19;;;-142.92;100.00
56456;BME280;42354;53.218;6.564;2023-07-22T03:49:05;46974.97;;;-142.92;100.00
56456;BME280;42354;53.218;6.564;2023-07-22T03:51:30;46972.91;;;-142.92;100.00
56456;BME280;42354;53.218;6.564;2023-07-22T03:53:56;46983.19;;;-142.92;100.00
56456;BME280;42354;53.218;6.564;2023-07-22T03:56:21;47005.75;;;-142.92;100.00
56456;BME280;42354;53.218;6.564;2023-07-22T03:58:49;46968.81;;;-142.92;100.00
56456;BME280;42354;53.218;6.564;2023-07-22T04:01:14;46987.28;;;-142.92;100.00
56456;BME280;42354;53.218;6.564;2023-07-22T04:03:40;46985.22;;;-142.92;100.00
56456;BME280;42354;53.218;6.564;2023-07-22T04:06:05;46970.88;;;-142.92;100.00
56456;BME280;42354;53.218;6.564;2023-07-22T04:08:30;46987.28;;;-142.92;100.00
56456;BME280;42354;53.218;6.564;2023-07-22T04:10:57;46981.13;;;-142.92;100.00
56456;BME280;42354;53.218;6.564;2023-07-22T04:13:23;46968.81;;;-142.92;100.00
56456;BME280;42354;53.218;6.564;2023-07-22T04:15:49;46970.88;;;-142.92;100.00
56456;BME280;42354;53.218;6.564;2023-07-22T04:18:18;46962.66;;;-142.92;100.00
56456;BME280;42354;53.218;6.564;2023-07-22T04:20:44;46993.44;;;-142.92;100.00
56456;BME280;42354;53.218;6.564;2023-07-22T04:23:10;46997.53;;;-142.92;100.00
56456;BME280;42354;53.218;6.564;2023-07-22T04:25:44;46979.06;;;-142.92;100.00
56456;BME280;42354;53.218;6.564;2023-07-22T04:28:10;46997.53;;;-142.92;100.00
56456;BME280;42354;53.218;6.564;2023-07-22T04:30:37;46991.38;;;-142.92;100.00
56456;BME280;42354;53.218;6.564;2023-07-22T04:33:03;46974.97;;;-142.92;100.00
56456;BME280;42354;53.218;6.564;2023-07-22T04:35:34;46977.03;;;-142.92;100.00
56456;BME280;42354;53.218;6.564;2023-07-22T04:37:59;46979.06;;;-142.92;100.00
56456;BME280;42354;53.218;6.564;2023-07-22T04:40:25;46983.19;;;-142.92;100.00
56456;BME280;42354;53.218;6.564;2023-07-22T04:42:50;46979.06;;;-142.92;100.00
56456;BME280;42354;53.218;6.564;2023-07-22T04:45:16;46999.59;;;-142.92;100.00
56456;BME280;42354;53.218;6.564;2023-07-22T04:47:43;46987.28;;;-142.92;100.00
56456;BME280;42354;53.218;6.564;2023-07-22T04:50:12;46987.28;;;-142.92;100.00
56456;BME280;42354;53.218;6.564;2023-07-22T04:52:37;46974.97;;;-142.92;100.00
56456;BME280;42354;53.218;6.564;2023-07-22T04:55:03;46987.28;;;-142.92;100.00
56456;BME280;42354;53.218;6.564;2023-07-22T04:57:35;46962.66;;;-142.92;100.00
56456;BME280;42354;53.218;6.564;2023-07-22T05:00:00;46966.75;;;-142.92;100.00
56456;BME280;42354;53.218;6.564;2023-07-22T05:02:29;46993.44;;;-142.92;100.00
56456;BME280;42354;53.218;6.564;2023-07-22T05:04:55;46989.34;;;-142.92;100.00
56456;BME280;42354;53.218;6.564;2023-07-22T05:07:21;46968.81;;;-142.92;100.00
56456;BME280;42354;53.218;6.564;2023-07-22T05:09:46;46985.22;;;-142.92;100.00
56456;BME280;42354;53.218;6.564;2023-07-22T05:12:12;46989.34;;;-142.92;100.00
56456;BME280;42354;53.218;6.564;2023-07-22T05:14:37;46974.97;;;-142.92;100.00
56456;BME280;42354;53.218;6.564;2023-07-22T05:17:03;46983.19;;;-142.92;100.00
56456;BME280;42354;53.218;6.564;2023-07-22T05:19:28;46974.97;;;-142.92;100.00
56456;BME280;42354;53.218;6.564;2023-07-22T05:21:54;46970.88;;;-142.92;100.00
56456;BME280;42354;53.218;6.564;2023-07-22T05:24:19;46981.13;;;-142.92;100.00
56456;BME280;42354;53.218;6.564;2023-07-22T05:26:46;46977.03;;;-142.92;100.00
56456;BME280;42354;53.218;6.564;2023-07-22T05:29:11;46987.28;;;-142.92;100.00
56456;BME280;42354;53.218;6.564;2023-07-22T05:31:37;46972.91;;;-142.92;100.00
56456;BME280;42354;53.218;6.564;2023-07-22T05:34:02;46979.06;;;-142.92;100.00
56456;BME280;42354;53.218;6.564;2023-07-22T05:36:29;46983.19;;;-142.92;100.00
56456;BME280;42354;53.218;6.564;2023-07-22T05:38:54;46974.97;;;-142.92;100.00
56456;BME280;42354;53.218;6.564;2023-07-22T05:41:19;46968.81;;;-142.92;100.00
56456;BME280;42354;53.218;6.564;2023-07-22T05:43:45;46966.75;;;-142.92;100.00
56456;BME280;42354;53.218;6.564;2023-07-22T05:46:10;46987.28;;;-142.92;100.00
56456;BME280;42354;53.218;6.564;2023-07-22T05:48:36;46977.03;;;-142.92;100.00
56456;BME280;42354;53.218;6.564;2023-07-22T05:51:01;46983.19;;;-142.92;100.00
56456;BME280;42354;53.218;6.564;2023-07-22T05:53:27;46958.56;;;-142.92;100.00
56456;BME280;42354;53.218;6.564;2023-07-22T05:55:52;46968.81;;;-142.92;100.00
56456;BME280;42354;53.218;6.564;2023-07-22T05:58:18;46977.03;;;-142.92;100.00
56456;BME280;42354;53.218;6.564;2023-07-22T06:00:43;46983.19;;;-142.92;100.00
56456;BME280;42354;53.218;6.564;2023-07-22T06:03:08;46981.13;;;-142.92;100.00
56456;BME280;42354;53.218;6.564;2023-07-22T06:05:34;46987.28;;;-142.92;100.00
56456;BME280;42354;53.218;6.564;2023-07-22T06:07:59;46972.91;;;-142.92;100.00
56456;BME280;42354;53.218;6.564;2023-07-22T06:10:25;46981.13;;;-142.92;100.00
56456;BME280;42354;53.218;6.564;2023-07-22T06:12:50;46989.34;;;-142.92;100.00
56456;BME280;42354;53.218;6.564;2023-07-22T06:15:16;46974.97;;;-142.92;100.00
56456;BME280;42354;53.218;6.564;2023-07-22T06:17:41;46989.34;;;-142.92;100.00
56456;BME280;42354;53.218;6.564;2023-07-22T06:20:07;46999.59;;;-142.92;99.32
56456;BME280;42354;53.218;6.564;2023-07-22T06:22:32;46991.38;;;-142.92;97.67
56456;BME280;42354;53.218;6.564;2023-07-22T06:24:58;46991.38;;;-142.92;96.15
56456;BME280;42354;53.218;6.564;2023-07-22T06:27:23;46972.91;;;-142.92;95.81
56456;BME280;42354;53.218;6.564;2023-07-22T06:29:48;46985.22;;;-142.92;94.90
56456;BME280;42354;53.218;6.564;2023-07-22T06:32:15;46974.97;;;-142.92;93.90
56456;BME280;42354;53.218;6.564;2023-07-22T06:34:40;46960.59;;;-142.92;93.29
56456;BME280;42354;53.218;6.564;2023-07-22T06:37:06;46966.75;;;-142.92;92.63
56456;BME280;42354;53.218;6.564;2023-07-22T06:39:31;46962.66;;;-142.92;91.98
56456;BME280;42354;53.218;6.564;2023-07-22T06:41:57;46985.22;;;-142.92;91.51
56456;BME280;42354;53.218;6.564;2023-07-22T06:44:22;46989.34;;;-142.92;90.73
56456;BME280;42354;53.218;6.564;2023-07-22T06:46:47;46966.75;;;-142.92;89.18
56456;BME280;42354;53.218;6.564;2023-07-22T06:49:13;46974.97;;;-142.92;87.78
56456;BME280;42354;53.218;6.564;2023-07-22T06:51:38;46974.97;;;-142.92;87.08
56456;BME280;42354;53.218;6.564;2023-07-22T06:54:03;46972.91;;;-142.92;84.50
56456;BME280;42354;53.218;6.564;2023-07-22T06:56:29;46981.13;;;-142.92;83.10
56456;BME280;42354;53.218;6.564;2023-07-22T06:58:54;46981.13;;;-142.92;82.83
56456;BME280;42354;53.218;6.564;2023-07-22T07:01:20;46977.03;;;-142.92;81.33
56456;BME280;42354;53.218;6.564;2023-07-22T07:03:45;46987.28;;;-142.92;80.28
56456;BME280;42354;53.218;6.564;2023-07-22T07:06:11;46970.88;;;-142.92;79.65
56456;BME280;42354;53.218;6.564;2023-07-22T07:08:38;46972.91;;;-142.92;78.30
56456;BME280;42354;53.218;6.564;2023-07-22T07:11:04;46979.06;;;-142.92;76.55
56456;BME280;42354;53.218;6.564;2023-07-22T07:13:30;46983.19;;;-142.92;75.95
56456;BME280;42354;53.218;6.564;2023-07-22T07:15:55;46974.97;;;-142.92;75.87
56456;BME280;42354;53.218;6.564;2023-07-22T07:18:21;46972.91;;;-142.92;74.47
56456;BME280;42354;53.218;6.564;2023-07-22T07:20:46;46989.34;;;-142.92;73.79
56456;BME280;42354;53.218;6.564;2023-07-22T07:23:14;46970.88;;;-142.92;73.17
56456;BME280;42354;53.218;6.564;2023-07-22T07:25:41;46972.91;;;-142.92;73.13
56456;BME280;42354;53.218;6.564;2023-07-22T07:28:07;46968.81;;;-142.92;74.25
56456;BME280;42354;53.218;6.564;2023-07-22T07:30:33;46970.88;;;-142.92;74.78
56456;BME280;42354;53.218;6.564;2023-07-22T07:32:59;46962.66;;;-142.92;74.75
56456;BME280;42354;53.218;6.564;2023-07-22T07:35:25;46979.06;;;-142.92;74.72
56456;BME280;42354;53.218;6.564;2023-07-22T07:37:52;46958.56;;;-142.92;74.39
56456;BME280;42354;53.218;6.564;2023-07-22T07:40:18;46966.75;;;-142.92;74.91
56456;BME280;42354;53.218;6.564;2023-07-22T07:42:43;46970.88;;;-142.92;74.87
56456;BME280;42354;53.218;6.564;2023-07-22T07:45:09;46972.91;;;-142.92;75.22
56456;BME280;42354;53.218;6.564;2023-07-22T07:47:34;46977.03;;;-142.92;75.17
56456;BME280;42354;53.218;6.564;2023-07-22T07:50:00;46970.88;;;-142.92;75.58
56456;BME280;42354;53.218;6.564;2023-07-22T07:52:25;46985.22;;;-142.92;75.98
56456;BME280;42354;53.218;6.564;2023-07-22T07:54:50;46987.28;;;-142.92;75.99
56456;BME280;42354;53.218;6.564;2023-07-22T07:57:16;46987.28;;;-142.92;76.50
56456;BME280;42354;53.218;6.564;2023-07-22T07:59:41;46991.38;;;-142.92;76.10
56456;BME280;42354;53.218;6.564;2023-07-22T08:02:07;46974.97;;;-142.92;76.00
56456;BME280;42354;53.218;6.564;2023-07-22T08:04:34;46970.88;;;-142.92;74.72
56456;BME280;42354;53.218;6.564;2023-07-22T08:07:00;46972.91;;;-142.92;73.15
56456;BME280;42354;53.218;6.564;2023-07-22T08:09:29;46981.13;;;-142.92;71.26
56456;BME280;42354;53.218;6.564;2023-07-22T08:11:54;46983.19;;;-142.92;70.37
56456;BME280;42354;53.218;6.564;2023-07-22T08:14:20;46987.28;;;-142.92;69.23
56456;BME280;42354;53.218;6.564;2023-07-22T08:16:45;46966.75;;;-142.92;67.73
56456;BME280;42354;53.218;6.564;2023-07-22T08:19:10;46964.72;;;-142.92;66.41
56456;BME280;42354;53.218;6.564;2023-07-22T08:21:36;46974.97;;;-142.92;65.75
56456;BME280;42354;53.218;6.564;2023-07-22T08:24:02;46987.28;;;-142.92;65.40
56456;BME280;42354;53.218;6.564;2023-07-22T08:26:27;46964.72;;;-142.92;64.91
56456;BME280;42354;53.218;6.564;2023-07-22T08:28:53;46979.06;;;-142.92;64.96
56456;BME280;42354;53.218;6.564;2023-07-22T08:31:18;46974.97;;;-142.92;64.91
56456;BME280;42354;53.218;6.564;2023-07-22T08:33:44;46966.75;;;-142.92;64.61
56456;BME280;42354;53.218;6.564;2023-07-22T08:36:09;46974.97;;;-142.92;64.48
56456;BME280;42354;53.218;6.564;2023-07-22T08:38:35;46970.88;;;-142.92;63.84
56456;BME280;42354;53.218;6.564;2023-07-22T08:41:00;46987.28;;;-142.92;64.10
56456;BME280;42354;53.218;6.564;2023-07-22T08:43:27;46987.28;;;-142.92;64.30
56456;BME280;42354;53.218;6.564;2023-07-22T08:45:54;46964.72;;;-142.92;64.70
56456;BME280;42354;53.218;6.564;2023-07-22T08:48:21;46987.28;;;-142.92;63.08
56456;BME280;42354;53.218;6.564;2023-07-22T08:51:07;46979.06;;;-142.92;62.55
56456;BME280;42354;53.218;6.564;2023-07-22T08:53:35;46983.19;;;-142.92;61.58
56456;BME280;42354;53.218;6.564;2023-07-22T08:56:02;46979.06;;;-142.92;60.28
56456;BME280;42354;53.218;6.564;2023-07-22T08:58:29;46981.13;;;-142.92;59.47
56456;BME280;42354;53.218;6.564;2023-07-22T09:00:55;46972.91;;;-142.92;58.06
56456;BME280;42354;53.218;6.564;2023-07-22T09:03:21;46968.81;;;-142.92;57.15
56456;BME280;42354;53.218;6.564;2023-07-22T09:05:47;46964.72;;;-142.92;55.64
56456;BME280;42354;53.218;6.564;2023-07-22T09:08:13;46974.97;;;-142.92;55.64
56456;BME280;42354;53.218;6.564;2023-07-22T09:10:38;46985.22;;;-142.92;56.19
56456;BME280;42354;53.218;6.564;2023-07-22T09:13:05;46993.44;;;-142.92;54.95
56456;BME280;42354;53.218;6.564;2023-07-22T09:15:33;46962.66;;;-142.92;54.06
56456;BME280;42354;53.218;6.564;2023-07-22T09:18:00;46956.50;;;-142.92;53.44
56456;BME280;42354;53.218;6.564;2023-07-22T09:20:25;46970.88;;;-142.92;52.46
56456;BME280;42354;53.218;6.564;2023-07-22T09:22:54;46954.44;;;-142.92;52.33
56456;BME280;42354;53.218;6.564;2023-07-22T09:25:22;46977.03;;;-142.92;52.97
56456;BME280;42354;53.218;6.564;2023-07-22T09:27:54;46962.66;;;-142.92;52.94
56456;BME280;42354;53.218;6.564;2023-07-22T09:32:49;46958.56;;;-142.92;57.19
56456;BME280;42354;53.218;6.564;2023-07-22T09:35:14;46981.13;;;-142.92;60.82
56456;BME280;42354;53.218;6.564;2023-07-22T09:37:41;46964.72;;;-142.92;63.98
56456;BME280;42354;53.218;6.564;2023-07-22T09:40:19;46966.75;;;-142.92;71.53
56456;BME280;42354;53.218;6.564;2023-07-22T09:42:52;46974.97;;;-142.92;77.64
56456;BME280;42354;53.218;6.564;2023-07-22T09:45:19;46981.13;;;-142.92;80.93
56456;BME280;42354;53.218;6.564;2023-07-22T09:47:47;46977.03;;;-142.92;83.12
56456;BME280;42354;53.218;6.564;2023-07-22T09:50:23;46983.19;;;-142.92;85.58
56456;BME280;42354;53.218;6.564;2023-07-22T09:52:49;46962.66;;;-142.92;87.63
56456;BME280;42354;53.218;6.564;2023-07-22T09:55:17;46979.06;;;-142.92;88.60
56456;BME280;42354;53.218;6.564;2023-07-22T09:57:45;46979.06;;;-142.92;90.19
56456;BME280;42354;53.218;6.564;2023-07-22T10:00:16;46966.75;;;-142.92;91.36
56456;BME280;42354;53.218;6.564;2023-07-22T10:02:44;46962.66;;;-142.92;94.41
56456;BME280;42354;53.218;6.564;2023-07-22T10:05:12;46983.19;;;-142.92;92.02
56456;BME280;42354;53.218;6.564;2023-07-22T10:07:42;46979.06;;;-142.92;92.91
56456;BME280;42354;53.218;6.564;2023-07-22T10:10:10;46970.88;;;-142.92;92.74
56456;BME280;42354;53.218;6.564;2023-07-22T10:12:38;46979.06;;;-142.92;91.77
56456;BME280;42354;53.218;6.564;2023-07-22T10:15:05;46983.19;;;-142.92;90.38
56456;BME280;42354;53.218;6.564;2023-07-22T10:17:31;46962.66;;;-142.92;89.61
56456;BME280;42354;53.218;6.564;2023-07-22T10:19:57;46968.81;;;-142.92;88.93
56456;BME280;42354;53.218;6.564;2023-07-22T10:22:26;46964.72;;;-142.92;88.35
56456;BME280;42354;53.218;6.564;2023-07-22T10:24:52;46966.75;;;-142.92;88.15
56456;BME280;42354;53.218;6.564;2023-07-22T10:27:19;46987.28;;;-142.92;88.26
56456;BME280;42354;53.218;6.564;2023-07-22T10:29:45;46972.91;;;-142.92;88.85
56456;BME280;42354;53.218;6.564;2023-07-22T10:32:11;46977.03;;;-142.92;89.92
56456;BME280;42354;53.218;6.564;2023-07-22T10:34:36;46966.75;;;-142.92;89.50
56456;BME280;42354;53.218;6.564;2023-07-22T10:37:02;46956.50;;;-142.92;89.73
56456;BME280;42354;53.218;6.564;2023-07-22T10:39:29;46987.28;;;-142.92;90.61
56456;BME280;42354;53.218;6.564;2023-07-22T10:42:05;46987.28;;;-142.92;89.86
56456;BME280;42354;53.218;6.564;2023-07-22T10:44:40;46979.06;;;-142.92;90.33
56456;BME280;42354;53.218;6.564;2023-07-22T10:47:06;46960.59;;;-142.92;89.49
56456;BME280;42354;53.218;6.564;2023-07-22T10:49:44;46985.22;;;-142.92;89.65
56456;BME280;42354;53.218;6.564;2023-07-22T10:52:11;46970.88;;;-142.92;90.74
56456;BME280;42354;53.218;6.564;2023-07-22T10:54:37;46974.97;;;-142.92;91.61
56456;BME280;42354;53.218;6.564;2023-07-22T10:57:05;46966.75;;;-142.92;92.86
56456;BME280;42354;53.218;6.564;2023-07-22T10:59:49;46958.56;;;-142.92;93.57
56456;BME280;42354;53.218;6.564;2023-07-22T11:02:28;46962.66;;;-142.92;93.24
56456;BME280;42354;53.218;6.564;2023-07-22T11:05:02;46972.91;;;-142.92;94.42
56456;BME280;42354;53.218;6.564;2023-07-22T11:07:42;46977.03;;;-142.92;94.92
56456;BME280;42354;53.218;6.564;2023-07-22T11:10:18;46974.97;;;-142.92;94.91
56456;BME280;42354;53.218;6.564;2023-07-22T11:12:44;46987.28;;;-142.92;96.18
56456;BME280;42354;53.218;6.564;2023-07-22T11:15:10;46970.88;;;-142.92;96.39
56456;BME280;42354;53.218;6.564;2023-07-22T11:17:37;46979.06;;;-142.92;96.42
56456;BME280;42354;53.218;6.564;2023-07-22T11:20:03;46972.91;;;-142.92;96.19
56456;BME280;42354;53.218;6.564;2023-07-22T11:22:29;46987.28;;;-142.92;96.18
56456;BME280;42354;53.218;6.564;2023-07-22T11:24:55;46979.06;;;-142.92;96.30
56456;BME280;42354;53.218;6.564;2023-07-22T11:27:22;46964.72;;;-142.92;96.83
56456;BME280;42354;53.218;6.564;2023-07-22T11:29:48;46987.28;;;-142.92;96.95
56456;BME280;42354;53.218;6.564;2023-07-22T11:32:18;46991.38;;;-142.92;96.53
56456;BME280;42354;53.218;6.564;2023-07-22T11:34:44;46981.13;;;-142.92;96.24
56456;BME280;42354;53.218;6.564;2023-07-22T11:37:10;46983.19;;;-142.92;96.54
56456;BME280;42354;53.218;6.564;2023-07-22T11:39:36;46977.03;;;-142.92;96.69
56456;BME280;42354;53.218;6.564;2023-07-22T11:42:03;46987.28;;;-142.92;97.19
56456;BME280;42354;53.218;6.564;2023-07-22T11:44:29;46972.91;;;-142.92;98.19
56456;BME280;42354;53.218;6.564;2023-07-22T11:47:02;46970.88;;;-142.92;98.29
56456;BME280;42354;53.218;6.564;2023-07-22T11:49:35;46964.72;;;-142.92;99.03
56456;BME280;42354;53.218;6.564;2023-07-22T11:54:28;46993.44;;;-142.92;99.38
56456;BME280;42354;53.218;6.564;2023-07-22T11:56:55;46966.75;;;-142.92;99.74
56456;BME280;42354;53.218;6.564;2023-07-22T11:59:47;46972.91;;;-142.92;99.40
56456;BME280;42354;53.218;6.564;2023-07-22T12:02:14;46950.34;;;-142.92;100.00
56456;BME280;42354;53.218;6.564;2023-07-22T12:04:40;46970.88;;;-142.92;100.00
56456;BME280;42354;53.218;6.564;2023-07-22T12:07:05;46987.28;;;-142.92;100.00
56456;BME280;42354;53.218;6.564;2023-07-22T12:09:31;46972.91;;;-142.92;100.00
56456;BME280;42354;53.218;6.564;2023-07-22T12:11:58;46970.88;;;-142.92;100.00
56456;BME280;42354;53.218;6.564;2023-07-22T12:14:32;46972.91;;;-142.92;100.00
56456;BME280;42354;53.218;6.564;2023-07-22T12:16:58;46962.66;;;-142.92;100.00
56456;BME280;42354;53.218;6.564;2023-07-22T12:19:27;46966.75;;;-142.92;100.00
56456;BME280;42354;53.218;6.564;2023-07-22T12:21:53;46970.88;;;-142.92;100.00
56456;BME280;42354;53.218;6.564;2023-07-22T12:24:18;46960.59;;;-142.92;100.00
56456;BME280;42354;53.218;6.564;2023-07-22T12:26:44;46979.06;;;-142.92;100.00
56456;BME280;42354;53.218;6.564;2023-07-22T12:29:09;46970.88;;;-142.92;100.00
56456;BME280;42354;53.218;6.564;2023-07-22T12:31:35;46983.19;;;-142.92;100.00
56456;BME280;42354;53.218;6.564;2023-07-22T12:34:00;46983.19;;;-142.92;100.00
56456;BME280;42354;53.218;6.564;2023-07-22T12:36:25;46954.44;;;-142.92;100.00